sensor_id;sensor_type;location;lat;lon;timestamp;pressure;altitude;pressure_sealevel;temperature;humidity
28630;BME280;15817;42.130;24.762;2023-01-29T00:00:31;100031.91;;;4.20;93.64
28630;BME280;15817;42.130;24.762;2023-01-29T00:03:00;100042.53;;;4.23;93.56
28630;BME280;15817;42.130;24.762;2023-01-29T00:05:26;100031.91;;;4.20;92.98
28630;BME280;15817;42.130;24.762;2023-01-29T00:07:52;100036.38;;;4.22;93.68
28630;BME280;15817;42.130;24.762;2023-01-29T00:10:27;100054.91;;;4.28;93.43
28630;BME280;15817;42.130;24.762;2023-01-29T00:13:21;100052.25;;;4.27;92.90
28630;BME280;15817;42.130;24.762;2023-01-29T00:16:27;100047.84;;;4.24;92.49
28630;BME280;15817;42.130;24.762;2023-01-29T00:18:59;100038.84;;;4.16;92.50
28630;BME280;15817;42.130;24.762;2023-01-29T00:21:40;100042.50;;;4.21;93.28
28630;BME280;15817;42.130;24.762;2023-01-29T00:24:13;100055.78;;;4.27;93.02
28630;BME280;15817;42.130;24.762;2023-01-29T00:27:00;100056.75;;;4.31;93.95
28630;BME280;15817;42.130;24.762;2023-01-29T00:29:25;100049.53;;;4.22;94.08
28630;BME280;15817;42.130;24.762;2023-01-29T00:31:54;100053.88;;;4.20;94.13
28630;BME280;15817;42.130;24.762;2023-01-29T00:34:36;100063.63;;;4.24;93.48
28630;BME280;15817;42.130;24.762;2023-01-29T00:37:05;100061.69;;;4.17;93.66
28630;BME280;15817;42.130;24.762;2023-01-29T00:39:33;100055.53;;;4.17;93.59
28630;BME280;15817;42.130;24.762;2023-01-29T00:42:13;100072.25;;;4.19;93.04
28630;BME280;15817;42.130;24.762;2023-01-29T00:45:00;100068.69;;;4.15;93.48
28630;BME280;15817;42.130;24.762;2023-01-29T00:47:26;100071.34;;;4.17;93.58
28630;BME280;15817;42.130;24.762;2023-01-29T00:50:00;100066.88;;;4.13;93.48
28630;BME280;15817;42.130;24.762;2023-01-29T00:52:25;100071.16;;;4.09;93.72
28630;BME280;15817;42.130;24.762;2023-01-29T00:54:53;100073.03;;;4.13;93.35
28630;BME280;15817;42.130;24.762;2023-01-29T00:57:19;100064.13;;;4.08;94.00
28630;BME280;15817;42.130;24.762;2023-01-29T00:59:45;100060.59;;;4.08;93.67
28630;BME280;15817;42.130;24.762;2023-01-29T01:02:11;100077.47;;;4.17;93.79
28630;BME280;15817;42.130;24.762;2023-01-29T01:04:58;100066.78;;;4.10;93.45
28630;BME280;15817;42.130;24.762;2023-01-29T01:07:26;100073.00;;;4.12;94.21
28630;BME280;15817;42.130;24.762;2023-01-29T01:09:52;100072.06;;;4.10;94.00
28630;BME280;15817;42.130;24.762;2023-01-29T01:12:37;100065.91;;;4.09;93.96
28630;BME280;15817;42.130;24.762;2023-01-29T01:15:06;100067.63;;;4.09;93.99
28630;BME280;15817;42.130;24.762;2023-01-29T01:17:37;100077.31;;;4.10;93.81
28630;BME280;15817;42.130;24.762;2023-01-29T01:20:04;100067.50;;;4.03;93.80
28630;BME280;15817;42.130;24.762;2023-01-29T01:22:33;100071.03;;;4.05;94.57
28630;BME280;15817;42.130;24.762;2023-01-29T01:25:06;100064.88;;;4.04;94.47
28630;BME280;15817;42.130;24.762;2023-01-29T01:27:32;100075.50;;;4.07;94.39
28630;BME280;15817;42.130;24.762;2023-01-29T01:29:59;100070.16;;;4.03;94.39
28630;BME280;15817;42.130;24.762;2023-01-29T01:32:27;100078.03;;;4.03;94.57
28630;BME280;15817;42.130;24.762;2023-01-29T01:34:53;100080.72;;;4.06;94.54
28630;BME280;15817;42.130;24.762;2023-01-29T01:37:21;100073.59;;;4.00;95.22
28630;BME280;15817;42.130;24.762;2023-01-29T01:39:47;100064.84;;;4.01;95.20
28630;BME280;15817;42.130;24.762;2023-01-29T01:42:15;100078.94;;;4.05;95.32
28630;BME280;15817;42.130;24.762;2023-01-29T01:45:00;100063.97;;;4.00;95.21
28630;BME280;15817;42.130;24.762;2023-01-29T01:47:34;100060.50;;;4.03;95.29
28630;BME280;15817;42.130;24.762;2023-01-29T01:50:10;100067.50;;;4.03;94.99
28630;BME280;15817;42.130;24.762;2023-01-29T01:52:42;100072.81;;;4.06;95.02
28630;BME280;15817;42.130;24.762;2023-01-29T01:55:15;100082.47;;;4.04;94.85
28630;BME280;15817;42.130;24.762;2023-01-29T01:57:44;100074.56;;;4.05;95.39
28630;BME280;15817;42.130;24.762;2023-01-29T02:00:15;100080.69;;;4.03;95.21
28630;BME280;15817;42.130;24.762;2023-01-29T02:02:44;100077.97;;;3.99;95.32
28630;BME280;15817;42.130;24.762;2023-01-29T02:05:33;100076.22;;;4.00;95.40
28630;BME280;15817;42.130;24.762;2023-01-29T02:08:26;100086.91;;;4.08;95.70
28630;BME280;15817;42.130;24.762;2023-01-29T02:11:13;100074.44;;;3.99;95.73
28630;BME280;15817;42.130;24.762;2023-01-29T02:13:39;100074.53;;;4.02;95.87
28630;BME280;15817;42.130;24.762;2023-01-29T02:16:10;100072.78;;;4.04;95.86
28630;BME280;15817;42.130;24.762;2023-01-29T02:18:35;100081.63;;;4.06;96.07
28630;BME280;15817;42.130;24.762;2023-01-29T02:21:22;100086.78;;;4.02;96.27
28630;BME280;15817;42.130;24.762;2023-01-29T02:27:06;100091.22;;;4.04;96.52
28630;BME280;15817;42.130;24.762;2023-01-29T02:43:58;100092.09;;;4.03;97.85
28630;BME280;15817;42.130;24.762;2023-01-29T02:49:02;100105.31;;;4.06;98.51
28630;BME280;15817;42.130;24.762;2023-01-29T02:51:48;100122.09;;;4.11;98.45
28630;BME280;15817;42.130;24.762;2023-01-29T02:54:19;100095.63;;;4.04;98.54
28630;BME280;15817;42.130;24.762;2023-01-29T02:56:52;100100.84;;;4.02;98.93
28630;BME280;15817;42.130;24.762;2023-01-29T02:59:38;100097.22;;;3.98;98.71
28630;BME280;15817;42.130;24.762;2023-01-29T03:02:10;100113.16;;;4.03;99.28
28630;BME280;15817;42.130;24.762;2023-01-29T03:04:43;100104.22;;;3.98;98.97
28630;BME280;15817;42.130;24.762;2023-01-29T03:07:24;100118.41;;;4.03;99.55
28630;BME280;15817;42.130;24.762;2023-01-29T03:10:36;100115.78;;;4.03;100.00
28630;BME280;15817;42.130;24.762;2023-01-29T03:13:44;100118.41;;;4.05;100.00
28630;BME280;15817;42.130;24.762;2023-01-29T03:16:14;100112.13;;;3.98;100.00
28630;BME280;15817;42.130;24.762;2023-01-29T03:18:55;100121.94;;;4.05;100.00
28630;BME280;15817;42.130;24.762;2023-01-29T03:21:43;100127.19;;;4.04;100.00
28630;BME280;15817;42.130;24.762;2023-01-29T03:24:49;100131.56;;;4.03;100.00
28630;BME280;15817;42.130;24.762;2023-01-29T03:30:37;100132.41;;;4.02;100.00
28630;BME280;15817;42.130;24.762;2023-01-29T03:33:51;100132.47;;;4.04;100.00
28630;BME280;15817;42.130;24.762;2023-01-29T03:36:30;100133.06;;;3.93;99.98
28630;BME280;15817;42.130;24.762;2023-01-29T03:39:07;100148.97;;;3.98;99.94
28630;BME280;15817;42.130;24.762;2023-01-29T03:41:41;100149.00;;;3.99;99.57
28630;BME280;15817;42.130;24.762;2023-01-29T03:47:45;100148.13;;;3.99;99.58
28630;BME280;15817;42.130;24.762;2023-01-29T03:53:30;100140.00;;;3.90;99.62
28630;BME280;15817;42.130;24.762;2023-01-29T03:56:06;100153.13;;;3.88;99.75
28630;BME280;15817;42.130;24.762;2023-01-29T03:58:52;100152.22;;;3.88;99.57
28630;BME280;15817;42.130;24.762;2023-01-29T04:01:39;100162.00;;;3.92;100.00
28630;BME280;15817;42.130;24.762;2023-01-29T04:04:14;100161.78;;;3.84;100.00
28630;BME280;15817;42.130;24.762;2023-01-29T04:06:47;100164.50;;;3.87;100.00
28630;BME280;15817;42.130;24.762;2023-01-29T04:09:21;100177.66;;;3.87;100.00
28630;BME280;15817;42.130;24.762;2023-01-29T04:11:59;100159.03;;;3.80;100.00
28630;BME280;15817;42.130;24.762;2023-01-29T04:14:30;100175.72;;;3.82;100.00
28630;BME280;15817;42.130;24.762;2023-01-29T04:17:07;100170.41;;;3.79;100.00
28630;BME280;15817;42.130;24.762;2023-01-29T04:19:43;100173.88;;;3.78;100.00
28630;BME280;15817;42.130;24.762;2023-01-29T04:22:16;100188.94;;;3.83;100.00
28630;BME280;15817;42.130;24.762;2023-01-29T04:24:44;100179.28;;;3.84;100.00
28630;BME280;15817;42.130;24.762;2023-01-29T04:30:08;100186.38;;;3.86;100.00
28630;BME280;15817;42.130;24.762;2023-01-29T04:35:40;100185.34;;;3.81;100.00
28630;BME280;15817;42.130;24.762;2023-01-29T04:38:31;100199.69;;;3.92;100.00
28630;BME280;15817;42.130;24.762;2023-01-29T04:41:13;100198.78;;;3.90;100.00
28630;BME280;15817;42.130;24.762;2023-01-29T04:46:56;100197.75;;;3.85;100.00
28630;BME280;15817;42.130;24.762;2023-01-29T04:49:38;100204.00;;;3.89;100.00
28630;BME280;15817;42.130;24.762;2023-01-29T04:52:31;100190.56;;;3.78;100.00
28630;BME280;15817;42.130;24.762;2023-01-29T04:55:11;100200.38;;;3.85;100.00
28630;BME280;15817;42.130;24.762;2023-01-29T05:00:53;100198.31;;;3.74;100.00
28630;BME280;15817;42.130;24.762;2023-01-29T05:03:24;100212.56;;;3.82;100.00
28630;BME280;15817;42.130;24.762;2023-01-29T05:05:53;100214.19;;;3.77;100.00
28630;BME280;15817;42.130;24.762;2023-01-29T05:08:38;100208.78;;;3.72;100.00
28630;BME280;15817;42.130;24.762;2023-01-29T05:11:05;100207.56;;;3.59;100.00
28630;BME280;15817;42.130;24.762;2023-01-29T05:13:33;100212.09;;;3.63;100.00
28630;BME280;15817;42.130;24.762;2023-01-29T05:16:14;100216.63;;;3.69;100.00
28630;BME280;15817;42.130;24.762;2023-01-29T05:18:41;100223.59;;;3.67;100.00
28630;BME280;15817;42.130;24.762;2023-01-29T05:21:07;100210.47;;;3.69;100.00
28630;BME280;15817;42.130;24.762;2023-01-29T05:23:34;100208.69;;;3.68;100.00
28630;BME280;15817;42.130;24.762;2023-01-29T05:26:03;100220.34;;;3.77;100.00
28630;BME280;15817;42.130;24.762;2023-01-29T05:28:31;100210.59;;;3.73;100.00
28630;BME280;15817;42.130;24.762;2023-01-29T05:30:57;100215.94;;;3.76;100.00
28630;BME280;15817;42.130;24.762;2023-01-29T05:33:26;100221.31;;;3.81;100.00
28630;BME280;15817;42.130;24.762;2023-01-29T05:35:53;100221.38;;;3.84;100.00
28630;BME280;15817;42.130;24.762;2023-01-29T05:38:20;100228.47;;;3.86;100.00
28630;BME280;15817;42.130;24.762;2023-01-29T05:40:46;100227.50;;;3.83;100.00
28630;BME280;15817;42.130;24.762;2023-01-29T05:43:25;100226.66;;;3.84;100.00
28630;BME280;15817;42.130;24.762;2023-01-29T05:46:00;100239.81;;;3.84;100.00
28630;BME280;15817;42.130;24.762;2023-01-29T05:48:27;100241.50;;;3.82;100.00
28630;BME280;15817;42.130;24.762;2023-01-29T05:50:59;100236.19;;;3.79;100.00
28630;BME280;15817;42.130;24.762;2023-01-29T05:53:28;100238.72;;;3.76;100.00
28630;BME280;15817;42.130;24.762;2023-01-29T05:56:00;100240.50;;;3.77;100.00
28630;BME280;15817;42.130;24.762;2023-01-29T05:58:26;100233.50;;;3.77;100.00
28630;BME280;15817;42.130;24.762;2023-01-29T06:00:52;100240.53;;;3.78;100.00
28630;BME280;15817;42.130;24.762;2023-01-29T06:03:18;100251.13;;;3.81;100.00
28630;BME280;15817;42.130;24.762;2023-01-29T06:05:43;100251.13;;;3.81;100.00
28630;BME280;15817;42.130;24.762;2023-01-29T06:08:09;100251.13;;;3.80;100.00
28630;BME280;15817;42.130;24.762;2023-01-29T06:10:35;100259.91;;;3.80;100.00
28630;BME280;15817;42.130;24.762;2023-01-29T06:13:04;100262.53;;;3.80;100.00
28630;BME280;15817;42.130;24.762;2023-01-29T06:15:31;100251.78;;;3.73;100.00
28630;BME280;15817;42.130;24.762;2023-01-29T06:17:57;100260.75;;;3.79;100.00
28630;BME280;15817;42.130;24.762;2023-01-29T06:20:23;100262.53;;;3.80;100.00
28630;BME280;15817;42.130;24.762;2023-01-29T06:22:49;100263.28;;;3.76;100.00
28630;BME280;15817;42.130;24.762;2023-01-29T06:25:20;100268.34;;;3.70;100.00
28630;BME280;15817;42.130;24.762;2023-01-29T06:31:19;100270.03;;;3.67;100.00
28630;BME280;15817;42.130;24.762;2023-01-29T06:33:44;100284.22;;;3.73;100.00
28630;BME280;15817;42.130;24.762;2023-01-29T06:36:13;100292.22;;;3.76;100.00
28630;BME280;15817;42.130;24.762;2023-01-29T06:38:42;100279.81;;;3.72;100.00
28630;BME280;15817;42.130;24.762;2023-01-29T06:41:11;100286.06;;;3.76;100.00
28630;BME280;15817;42.130;24.762;2023-01-29T06:43:38;100290.53;;;3.78;100.00
28630;BME280;15817;42.130;24.762;2023-01-29T06:46:07;100283.53;;;3.79;100.00
28630;BME280;15817;42.130;24.762;2023-01-29T06:48:33;100294.09;;;3.80;100.00
28630;BME280;15817;42.130;24.762;2023-01-29T06:51:14;100296.63;;;3.77;100.00
28630;BME280;15817;42.130;24.762;2023-01-29T06:53:40;100291.47;;;3.80;100.00
28630;BME280;15817;42.130;24.762;2023-01-29T06:56:09;100313.72;;;3.93;100.00
28630;BME280;15817;42.130;24.762;2023-01-29T06:58:36;100308.44;;;3.91;100.00
28630;BME280;15817;42.130;24.762;2023-01-29T07:01:10;100307.50;;;3.89;100.00
28630;BME280;15817;42.130;24.762;2023-01-29T07:03:41;100300.41;;;3.87;100.00
28630;BME280;15817;42.130;24.762;2023-01-29T07:06:10;100305.66;;;3.87;100.00
28630;BME280;15817;42.130;24.762;2023-01-29T07:08:42;100322.66;;;3.98;100.00
28630;BME280;15817;42.130;24.762;2023-01-29T07:11:08;100315.66;;;3.98;100.00
28630;BME280;15817;42.130;24.762;2023-01-29T07:13:34;100323.59;;;4.00;100.00
28630;BME280;15817;42.130;24.762;2023-01-29T07:16:01;100324.44;;;3.99;100.00
28630;BME280;15817;42.130;24.762;2023-01-29T07:18:30;100320.00;;;3.98;100.00
28630;BME280;15817;42.130;24.762;2023-01-29T07:21:05;100334.22;;;4.05;100.00
28630;BME280;15817;42.130;24.762;2023-01-29T07:23:37;100320.72;;;3.91;100.00
28630;BME280;15817;42.130;24.762;2023-01-29T07:26:22;100322.50;;;3.93;100.00
28630;BME280;15817;42.130;24.762;2023-01-29T07:28:54;100327.00;;;3.97;100.00
28630;BME280;15817;42.130;24.762;2023-01-29T07:31:28;100322.56;;;3.95;100.00
28630;BME280;15817;42.130;24.762;2023-01-29T07:33:54;100324.28;;;3.94;100.00
28630;BME280;15817;42.130;24.762;2023-01-29T07:36:22;100325.19;;;3.95;100.00
28630;BME280;15817;42.130;24.762;2023-01-29T07:38:57;100336.84;;;4.03;100.00
28630;BME280;15817;42.130;24.762;2023-01-29T07:41:56;100317.34;;;3.96;100.00
28630;BME280;15817;42.130;24.762;2023-01-29T07:44:27;100320.00;;;3.98;100.00
28630;BME280;15817;42.130;24.762;2023-01-29T07:46:53;100313.00;;;3.98;100.00
28630;BME280;15817;42.130;24.762;2023-01-29T07:49:26;100316.63;;;4.02;100.00
28630;BME280;15817;42.130;24.762;2023-01-29T07:51:56;100329.19;;;4.12;100.00
28630;BME280;15817;42.130;24.762;2023-01-29T07:54:25;100328.25;;;4.10;100.00
28630;BME280;15817;42.130;24.762;2023-01-29T07:56:50;100327.41;;;4.11;100.00
28630;BME280;15817;42.130;24.762;2023-01-29T07:59:16;100336.09;;;4.09;100.00
28630;BME280;15817;42.130;24.762;2023-01-29T08:01:42;100332.56;;;4.08;100.00
28630;BME280;15817;42.130;24.762;2023-01-29T08:04:08;100338.06;;;4.17;100.00
28630;BME280;15817;42.130;24.762;2023-01-29T08:06:34;100334.53;;;4.15;100.00
28630;BME280;15817;42.130;24.762;2023-01-29T08:09:02;100340.97;;;4.26;100.00
28630;BME280;15817;42.130;24.762;2023-01-29T08:11:28;100341.66;;;4.19;100.00
28630;BME280;15817;42.130;24.762;2023-01-29T08:13:54;100350.72;;;4.30;100.00
28630;BME280;15817;42.130;24.762;2023-01-29T08:16:21;100353.41;;;4.32;100.00
28630;BME280;15817;42.130;24.762;2023-01-29T08:18:46;100355.16;;;4.31;100.00
28630;BME280;15817;42.130;24.762;2023-01-29T08:21:13;100337.59;;;4.32;100.00
28630;BME280;15817;42.130;24.762;2023-01-29T08:23:39;100344.69;;;4.34;100.00
28630;BME280;15817;42.130;24.762;2023-01-29T08:26:10;100344.81;;;4.39;100.00
28630;BME280;15817;42.130;24.762;2023-01-29T08:28:36;100356.19;;;4.36;100.00
28630;BME280;15817;42.130;24.762;2023-01-29T08:31:04;100350.91;;;4.36;100.00
28630;BME280;15817;42.130;24.762;2023-01-29T08:33:37;100363.56;;;4.50;100.00
28630;BME280;15817;42.130;24.762;2023-01-29T08:36:06;100349.31;;;4.43;100.00
28630;BME280;15817;42.130;24.762;2023-01-29T08:38:38;100361.69;;;4.46;100.00
28630;BME280;15817;42.130;24.762;2023-01-29T08:41:10;100355.31;;;4.38;100.00
28630;BME280;15817;42.130;24.762;2023-01-29T08:43:36;100358.84;;;4.38;100.00
28630;BME280;15817;42.130;24.762;2023-01-29T08:46:04;100366.75;;;4.38;100.00
28630;BME280;15817;42.130;24.762;2023-01-29T08:48:30;100365.81;;;4.36;100.00
28630;BME280;15817;42.130;24.762;2023-01-29T08:50:57;100377.28;;;4.40;100.00
28630;BME280;15817;42.130;24.762;2023-01-29T08:53:24;100361.25;;;4.30;100.00
28630;BME280;15817;42.130;24.762;2023-01-29T08:55:50;100360.41;;;4.31;100.00
28630;BME280;15817;42.130;24.762;2023-01-29T08:58:17;100355.94;;;4.29;100.00
28630;BME280;15817;42.130;24.762;2023-01-29T09:00:43;100360.31;;;4.28;100.00
28630;BME280;15817;42.130;24.762;2023-01-29T09:03:09;100372.97;;;4.42;100.00
28630;BME280;15817;42.130;24.762;2023-01-29T09:05:43;100356.03;;;4.32;100.00
28630;BME280;15817;42.130;24.762;2023-01-29T09:11:43;100353.50;;;4.35;100.00
28630;BME280;15817;42.130;24.762;2023-01-29T09:14:09;100358.88;;;4.40;100.00
28630;BME280;15817;42.130;24.762;2023-01-29T09:16:43;100359.81;;;4.42;100.00
28630;BME280;15817;42.130;24.762;2023-01-29T09:19:32;100367.09;;;4.52;100.00
28630;BME280;15817;42.130;24.762;2023-01-29T09:22:00;100374.28;;;4.57;100.00
28630;BME280;15817;42.130;24.762;2023-01-29T09:24:28;100377.09;;;4.65;100.00
28630;BME280;15817;42.130;24.762;2023-01-29T09:26:54;100367.19;;;4.55;100.00
28630;BME280;15817;42.130;24.762;2023-01-29T09:29:23;100372.56;;;4.59;100.00
28630;BME280;15817;42.130;24.762;2023-01-29T09:31:48;100354.06;;;4.56;100.00
28630;BME280;15817;42.130;24.762;2023-01-29T09:34:14;100359.47;;;4.62;100.00
28630;BME280;15817;42.130;24.762;2023-01-29T09:36:40;100355.03;;;4.60;100.00
28630;BME280;15817;42.130;24.762;2023-01-29T09:39:06;100363.00;;;4.63;100.00
28630;BME280;15817;42.130;24.762;2023-01-29T09:48:45;100346.47;;;4.68;100.00
28630;BME280;15817;42.130;24.762;2023-01-29T09:51:27;100349.91;;;4.66;100.00
28630;BME280;15817;42.130;24.762;2023-01-29T09:56:37;100340.22;;;4.65;100.00
28630;BME280;15817;42.130;24.762;2023-01-29T09:59:03;100339.38;;;4.66;100.00
28630;BME280;15817;42.130;24.762;2023-01-29T10:19:02;100319.41;;;4.76;100.00
28630;BME280;15817;42.130;24.762;2023-01-29T10:24:25;100319.53;;;4.80;100.00
28630;BME280;15817;42.130;24.762;2023-01-29T10:27:29;100318.97;;;4.93;100.00
28630;BME280;15817;42.130;24.762;2023-01-29T10:30:16;100309.38;;;4.95;100.00
28630;BME280;15817;42.130;24.762;2023-01-29T10:32:45;100318.41;;;5.06;100.00
28630;BME280;15817;42.130;24.762;2023-01-29T10:35:50;100299.00;;;5.03;100.00
28630;BME280;15817;42.130;24.762;2023-01-29T10:41:05;100302.91;;;5.22;100.00
28630;BME280;15817;42.130;24.762;2023-01-29T10:44:00;100306.69;;;5.33;100.00
28630;BME280;15817;42.130;24.762;2023-01-29T10:47:05;100284.63;;;5.28;100.00
28630;BME280;15817;42.130;24.762;2023-01-29T10:58:21;100281.28;;;5.36;100.00
28630;BME280;15817;42.130;24.762;2023-01-29T11:00:48;100276.97;;;5.40;100.00
28630;BME280;15817;42.130;24.762;2023-01-29T11:03:21;100272.66;;;5.45;100.00
28630;BME280;15817;42.130;24.762;2023-01-29T11:08:22;100261.31;;;5.49;100.00
28630;BME280;15817;42.130;24.762;2023-01-29T11:11:15;100266.56;;;5.47;100.00
28630;BME280;15817;42.130;24.762;2023-01-29T11:14:04;100272.84;;;5.53;100.00
28630;BME280;15817;42.130;24.762;2023-01-29T11:16:47;100264.16;;;5.58;100.00
28630;BME280;15817;42.130;24.762;2023-01-29T11:19:41;100259.78;;;5.60;100.00
28630;BME280;15817;42.130;24.762;2023-01-29T11:22:52;100256.38;;;5.64;100.00
28630;BME280;15817;42.130;24.762;2023-01-29T11:25:28;100268.81;;;5.71;99.97
28630;BME280;15817;42.130;24.762;2023-01-29T11:28:09;100244.88;;;5.62;99.75
28630;BME280;15817;42.130;24.762;2023-01-29T11:30:37;100248.41;;;5.63;99.67
28630;BME280;15817;42.130;24.762;2023-01-29T11:33:22;100254.69;;;5.69;99.35
28630;BME280;15817;42.130;24.762;2023-01-29T11:41:42;100237.06;;;5.68;99.15
28630;BME280;15817;42.130;24.762;2023-01-29T11:47:35;100220.44;;;5.71;96.51
28630;BME280;15817;42.130;24.762;2023-01-29T11:54:04;100222.41;;;5.82;95.94
28630;BME280;15817;42.130;24.762;2023-01-29T11:56:39;100229.59;;;5.88;95.15
28630;BME280;15817;42.130;24.762;2023-01-29T12:02:46;100206.69;;;5.89;95.62
28630;BME280;15817;42.130;24.762;2023-01-29T12:05:27;100224.50;;;5.99;95.01
28630;BME280;15817;42.130;24.762;2023-01-29T12:08:21;100208.47;;;5.88;94.53
28630;BME280;15817;42.130;24.762;2023-01-29T12:11:14;100209.34;;;5.89;95.44
28630;BME280;15817;42.130;24.762;2023-01-29T12:14:43;100201.47;;;5.92;95.68
28630;BME280;15817;42.130;24.762;2023-01-29T12:17:01;100201.63;;;5.98;94.91
28630;BME280;15817;42.130;24.762;2023-01-29T12:20:50;100204.44;;;6.08;94.49
28630;BME280;15817;42.130;24.762;2023-01-29T12:23:31;100208.88;;;6.12;92.42
28630;BME280;15817;42.130;24.762;2023-01-29T12:26:27;100193.78;;;6.04;91.95
28630;BME280;15817;42.130;24.762;2023-01-29T12:35:19;100177.97;;;6.05;91.56
28630;BME280;15817;42.130;24.762;2023-01-29T12:41:22;100188.59;;;6.08;92.31
28630;BME280;15817;42.130;24.762;2023-01-29T12:44:19;100186.00;;;6.11;90.66
28630;BME280;15817;42.130;24.762;2023-01-29T12:47:02;100185.94;;;6.07;90.68
28630;BME280;15817;42.130;24.762;2023-01-29T12:55:45;100198.22;;;6.06;91.48
28630;BME280;15817;42.130;24.762;2023-01-29T13:05:28;100197.41;;;6.09;90.73
28630;BME280;15817;42.130;24.762;2023-01-29T13:11:16;100191.09;;;5.99;90.78
28630;BME280;15817;42.130;24.762;2023-01-29T13:20:18;100183.97;;;5.95;90.10
28630;BME280;15817;42.130;24.762;2023-01-29T13:22:49;100190.19;;;5.99;91.03
28630;BME280;15817;42.130;24.762;2023-01-29T13:25:19;100192.81;;;6.00;91.07
28630;BME280;15817;42.130;24.762;2023-01-29T13:34:42;100196.44;;;6.05;87.83
28630;BME280;15817;42.130;24.762;2023-01-29T13:48:08;100199.22;;;6.11;88.04
28630;BME280;15817;42.130;24.762;2023-01-29T13:50:50;100187.66;;;6.06;86.14
28630;BME280;15817;42.130;24.762;2023-01-29T13:57:46;100192.03;;;6.04;86.26
28630;BME280;15817;42.130;24.762;2023-01-29T14:01:15;100189.34;;;6.01;86.61
28630;BME280;15817;42.130;24.762;2023-01-29T15:04:21;100217.25;;;5.89;88.10
28630;BME280;15817;42.130;24.762;2023-01-29T15:06:58;100217.22;;;5.87;88.91
28630;BME280;15817;42.130;24.762;2023-01-29T15:09:36;100234.91;;;5.91;89.39
28630;BME280;15817;42.130;24.762;2023-01-29T15:12:23;100231.31;;;5.88;89.22
28630;BME280;15817;42.130;24.762;2023-01-29T15:20:29;100219.69;;;5.79;90.13
28630;BME280;15817;42.130;24.762;2023-01-29T15:23:01;100227.59;;;5.78;90.25
28630;BME280;15817;42.130;24.762;2023-01-29T15:25:35;100225.81;;;5.77;90.52
28630;BME280;15817;42.130;24.762;2023-01-29T15:28:09;100233.78;;;5.80;89.66
28630;BME280;15817;42.130;24.762;2023-01-29T15:30:36;100236.41;;;5.78;90.22
28630;BME280;15817;42.130;24.762;2023-01-29T15:33:07;100240.81;;;5.79;90.88
28630;BME280;15817;42.130;24.762;2023-01-29T15:35:39;100243.38;;;5.75;90.67
28630;BME280;15817;42.130;24.762;2023-01-29T15:38:20;100244.25;;;5.74;90.87
28630;BME280;15817;42.130;24.762;2023-01-29T15:43:41;100246.84;;;5.72;90.90
28630;BME280;15817;42.130;24.762;2023-01-29T15:46:29;100254.75;;;5.72;91.02
28630;BME280;15817;42.130;24.762;2023-01-29T15:49:23;100240.53;;;5.64;91.46
28630;BME280;15817;42.130;24.762;2023-01-29T15:51:55;100246.69;;;5.63;91.31
28630;BME280;15817;42.130;24.762;2023-01-29T15:54:29;100250.22;;;5.64;91.68
28630;BME280;15817;42.130;24.762;2023-01-29T15:56:56;100270.41;;;5.63;90.96
28630;BME280;15817;42.130;24.762;2023-01-29T15:59:29;100272.91;;;5.57;90.93
28630;BME280;15817;42.130;24.762;2023-01-29T16:02:24;100279.91;;;5.54;91.09
28630;BME280;15817;42.130;24.762;2023-01-29T16:04:55;100282.44;;;5.49;91.22
28630;BME280;15817;42.130;24.762;2023-01-29T16:07:24;100273.56;;;5.45;91.25
28630;BME280;15817;42.130;24.762;2023-01-29T16:09:51;100281.47;;;5.45;91.30
28630;BME280;15817;42.130;24.762;2023-01-29T16:12:28;100285.81;;;5.42;91.12
28630;BME280;15817;42.130;24.762;2023-01-29T16:14:58;100286.66;;;5.41;91.16
28630;BME280;15817;42.130;24.762;2023-01-29T16:17:38;100298.16;;;5.44;92.02
28630;BME280;15817;42.130;24.762;2023-01-29T16:23:52;100307.81;;;5.44;91.66
28630;BME280;15817;42.130;24.762;2023-01-29T16:26:29;100291.75;;;5.33;91.43
28630;BME280;15817;42.130;24.762;2023-01-29T16:29:30;100294.34;;;5.32;91.65
28630;BME280;15817;42.130;24.762;2023-01-29T16:32:01;100302.25;;;5.32;91.91
28630;BME280;15817;42.130;24.762;2023-01-29T16:34:38;100297.84;;;5.29;91.70
28630;BME280;15817;42.130;24.762;2023-01-29T16:37:28;100303.06;;;5.28;91.63
28630;BME280;15817;42.130;24.762;2023-01-29T16:39:58;100303.06;;;5.28;91.68
28630;BME280;15817;42.130;24.762;2023-01-29T16:42:28;100311.03;;;5.29;91.72
28630;BME280;15817;42.130;24.762;2023-01-29T16:45:02;100311.81;;;5.25;91.56
28630;BME280;15817;42.130;24.762;2023-01-29T16:51:38;100314.31;;;5.19;91.59
28630;BME280;15817;42.130;24.762;2023-01-29T16:54:10;100323.16;;;5.23;91.43
28630;BME280;15817;42.130;24.762;2023-01-29T16:56:38;100318.75;;;5.22;91.72
28630;BME280;15817;42.130;24.762;2023-01-29T16:59:20;100330.19;;;5.22;92.15
28630;BME280;15817;42.130;24.762;2023-01-29T17:01:54;100324.75;;;5.15;91.63
28630;BME280;15817;42.130;24.762;2023-01-29T17:04:21;100320.25;;;5.10;91.70
28630;BME280;15817;42.130;24.762;2023-01-29T17:07:11;100318.41;;;5.06;91.99
28630;BME280;15817;42.130;24.762;2023-01-29T17:10:14;100305.00;;;4.97;91.80
28630;BME280;15817;42.130;24.762;2023-01-29T17:16:34;100321.66;;;4.95;91.84
28630;BME280;15817;42.130;24.762;2023-01-29T17:19:15;100316.25;;;4.90;92.38
28630;BME280;15817;42.130;24.762;2023-01-29T17:21:47;100326.00;;;4.93;91.78
28630;BME280;15817;42.130;24.762;2023-01-29T17:24:31;100322.28;;;4.86;91.89
28630;BME280;15817;42.130;24.762;2023-01-29T17:26:56;100337.31;;;4.89;91.67
28630;BME280;15817;42.130;24.762;2023-01-29T17:29:25;100320.50;;;4.85;91.88